createdAt,value
2023-01-15T00:00:28.793Z,92.67
2023-01-15T00:02:55.932Z,92.52
2023-01-15T00:05:24.386Z,92.98
2023-01-15T00:07:52.127Z,92.76
2023-01-15T00:10:18.590Z,92.65
2023-01-15T00:12:44.991Z,92.68
2023-01-15T00:15:14.301Z,92.93
2023-01-15T00:17:40.968Z,92.95
2023-01-15T00:20:08.145Z,93.01
2023-01-15T00:22:34.535Z,93.32
2023-01-15T00:25:19.514Z,93.78
2023-01-15T00:27:45.989Z,94.20
2023-01-15T00:30:14.789Z,94.51
2023-01-15T00:32:41.850Z,94.47
2023-01-15T00:35:12.824Z,94.47
2023-01-15T00:37:39.224Z,94.95
2023-01-15T00:40:06.070Z,94.88
2023-01-15T00:42:32.490Z,94.63
2023-01-15T00:44:59.015Z,94.63
2023-01-15T00:47:25.695Z,95.30
2023-01-15T00:49:52.150Z,95.18
2023-01-15T00:52:18.569Z,95.28
2023-01-15T00:54:45.324Z,95.49
2023-01-15T00:57:11.759Z,95.34
2023-01-15T00:59:38.281Z,95.46
2023-01-15T01:02:05.012Z,95.78
2023-01-15T01:04:31.527Z,95.67
2023-01-15T01:06:58.101Z,96.15
2023-01-15T01:09:24.626Z,96.50
2023-01-15T01:11:51.103Z,96.50
2023-01-15T01:14:17.608Z,96.97
2023-01-15T01:16:44.138Z,97.13
2023-01-15T01:19:18.446Z,97.29
2023-01-15T01:21:45.431Z,97.36
2023-01-15T01:24:14.087Z,97.79
2023-01-15T01:26:40.960Z,98.32
2023-01-15T01:29:07.523Z,98.91
2023-01-15T01:31:34.051Z,99.15
2023-01-15T01:34:00.685Z,99.84
2023-01-15T01:36:38.073Z,99.90
2023-01-15T01:39:05.735Z,99.80
2023-01-15T01:41:32.879Z,100.00
2023-01-15T01:44:08.988Z,100.00
2023-01-15T01:46:36.230Z,100.00
2023-01-15T01:49:05.267Z,100.00
2023-01-15T01:51:36.112Z,100.00
2023-01-15T01:54:03.063Z,100.00
2023-01-15T01:56:30.947Z,100.00
2023-01-15T01:58:57.410Z,100.00
2023-01-15T02:01:25.603Z,100.00
2023-01-15T02:03:53.376Z,100.00
2023-01-15T02:06:19.931Z,100.00
2023-01-15T02:08:46.378Z,99.78
2023-01-15T02:11:18.233Z,99.64
2023-01-15T02:13:53.515Z,99.09
2023-01-15T02:16:24.206Z,98.89
2023-01-15T02:19:16.679Z,98.81
2023-01-15T02:22:15.503Z,97.82
2023-01-15T02:25:00.663Z,97.19
2023-01-15T02:27:27.898Z,94.81
2023-01-15T02:30:10.836Z,93.25
2023-01-15T02:32:45.505Z,91.65
2023-01-15T02:35:34.803Z,89.91
2023-01-15T02:38:05.637Z,88.99
2023-01-15T02:40:32.808Z,87.68
2023-01-15T02:42:59.447Z,87.04
2023-01-15T02:45:29.431Z,86.40
2023-01-15T02:47:58.661Z,84.71
2023-01-15T02:50:35.909Z,84.66
2023-01-15T02:53:05.816Z,85.17
2023-01-15T02:55:35.528Z,85.04
2023-01-15T02:58:05.153Z,85.40
2023-01-15T03:00:34.305Z,84.83
2023-01-15T03:03:28.564Z,84.87
2023-01-15T03:06:02.347Z,84.73
2023-01-15T03:08:29.255Z,82.24
2023-01-15T03:10:58.632Z,79.84
2023-01-15T03:13:31.996Z,79.76
2023-01-15T03:16:22.312Z,79.70
2023-01-15T03:18:53.899Z,79.80
2023-01-15T03:21:23.379Z,80.25
2023-01-15T03:23:52.621Z,80.33
2023-01-15T03:26:19.308Z,80.73
2023-01-15T03:28:46.765Z,80.84
2023-01-15T03:31:13.271Z,80.64
2023-01-15T03:33:40.651Z,80.96
2023-01-15T03:36:07.842Z,80.92
2023-01-15T03:38:36.915Z,80.82
2023-01-15T03:41:16.573Z,80.36
2023-01-15T03:43:55.485Z,79.79
2023-01-15T03:46:59.700Z,79.78
2023-01-15T03:49:33.212Z,79.05
2023-01-15T03:52:03.832Z,79.52
2023-01-15T03:54:41.302Z,79.25
2023-01-15T03:57:13.876Z,79.71
2023-01-15T03:59:58.129Z,79.92
2023-01-15T04:02:25.339Z,80.22
2023-01-15T04:04:53.511Z,80.36
2023-01-15T04:07:20.615Z,80.68
2023-01-15T04:09:47.266Z,80.68
2023-01-15T04:12:13.764Z,80.92
2023-01-15T04:14:40.335Z,81.24
2023-01-15T04:17:07.102Z,81.29
2023-01-15T04:19:33.856Z,81.23
2023-01-15T04:22:00.332Z,80.74
2023-01-15T04:24:26.958Z,80.68
2023-01-15T04:26:53.483Z,80.95
2023-01-15T04:29:20.181Z,81.09
2023-01-15T04:31:46.775Z,81.29
2023-01-15T04:34:13.250Z,81.20
2023-01-15T04:36:39.736Z,81.12
2023-01-15T04:39:06.274Z,80.97
2023-01-15T04:41:51.387Z,80.49
2023-01-15T04:44:17.963Z,80.86
2023-01-15T04:46:45.935Z,80.73
2023-01-15T04:49:17.122Z,80.75
2023-01-15T04:51:44.321Z,80.68
2023-01-15T04:54:12.689Z,80.29
2023-01-15T04:56:41.530Z,80.55
2023-01-15T04:59:08.607Z,80.58
2023-01-15T05:01:35.472Z,80.12
2023-01-15T05:04:02.205Z,79.92
2023-01-15T05:06:29.196Z,80.19
2023-01-15T05:08:55.664Z,80.23
2023-01-15T05:11:22.168Z,80.38
2023-01-15T05:13:48.631Z,80.54
2023-01-15T05:16:26.726Z,80.64
2023-01-15T05:18:54.712Z,80.52
2023-01-15T05:21:26.747Z,81.08
2023-01-15T05:23:55.893Z,81.44
2023-01-15T05:26:22.855Z,81.80
2023-01-15T05:28:49.800Z,81.78
2023-01-15T05:31:18.298Z,82.12
2023-01-15T05:33:46.933Z,82.00
2023-01-15T05:36:22.264Z,82.11
2023-01-15T05:38:48.776Z,81.73
2023-01-15T05:41:36.558Z,81.79
2023-01-15T05:44:05.792Z,81.78
2023-01-15T05:46:33.917Z,81.98
2023-01-15T05:49:07.121Z,82.20
2023-01-15T05:51:35.676Z,82.24
2023-01-15T05:54:02.637Z,82.11
2023-01-15T05:56:29.101Z,81.92
2023-01-15T05:58:55.725Z,81.96
2023-01-15T06:01:22.702Z,82.19
2023-01-15T06:03:49.451Z,82.58
2023-01-15T06:06:18.090Z,82.33
2023-01-15T06:08:45.321Z,82.63
2023-01-15T06:11:12.028Z,82.38
2023-01-15T06:13:41.861Z,82.52
2023-01-15T06:16:10.787Z,82.28
2023-01-15T06:18:38.649Z,82.28
2023-01-15T06:21:06.790Z,82.19
2023-01-15T06:23:36.609Z,81.49
2023-01-15T06:26:05.064Z,81.21
2023-01-15T06:28:31.777Z,80.63
2023-01-15T06:30:58.234Z,80.25
2023-01-15T06:33:24.809Z,79.74
2023-01-15T06:35:52.304Z,79.45
2023-01-15T06:38:18.836Z,79.00
2023-01-15T06:40:45.340Z,78.72
2023-01-15T06:43:30.510Z,78.53
2023-01-15T06:46:16.292Z,77.97
2023-01-15T06:48:43.276Z,77.61
2023-01-15T06:51:09.936Z,77.47
2023-01-15T06:53:36.409Z,77.27
2023-01-15T06:56:02.884Z,77.09
2023-01-15T06:58:29.309Z,76.90
2023-01-15T07:00:56.709Z,76.95
2023-01-15T07:03:23.646Z,76.92
2023-01-15T07:05:50.194Z,76.79
2023-01-15T07:08:16.656Z,76.58
2023-01-15T07:10:43.313Z,76.35
2023-01-15T07:13:10.261Z,76.32
2023-01-15T07:15:39.078Z,76.13
2023-01-15T07:18:05.700Z,76.29
2023-01-15T07:20:32.197Z,75.99
2023-01-15T07:22:58.712Z,75.84
2023-01-15T07:25:25.198Z,75.66
2023-01-15T07:27:51.722Z,75.74
2023-01-15T07:30:18.398Z,74.99
2023-01-15T07:32:44.866Z,74.17
2023-01-15T07:35:11.334Z,74.22
2023-01-15T07:37:39.603Z,73.89
2023-01-15T07:40:06.297Z,73.73
2023-01-15T07:42:51.268Z,73.50
2023-01-15T07:45:36.427Z,73.44
2023-01-15T07:48:21.508Z,73.24
2023-01-15T07:50:48.013Z,72.95
2023-01-15T07:53:14.490Z,73.04
2023-01-15T07:55:40.978Z,73.00
2023-01-15T07:58:07.442Z,72.84
2023-01-15T08:00:33.929Z,72.66
2023-01-15T08:03:00.391Z,72.49
2023-01-15T08:05:26.870Z,72.60
2023-01-15T08:07:53.367Z,72.32
2023-01-15T08:10:19.997Z,72.16
2023-01-15T08:13:08.060Z,72.09
2023-01-15T08:15:38.625Z,72.13
2023-01-15T08:18:05.252Z,71.67
2023-01-15T08:20:31.785Z,71.65
2023-01-15T08:23:01.062Z,71.56
2023-01-15T08:25:27.645Z,70.99
2023-01-15T08:27:54.998Z,70.29
2023-01-15T08:30:24.466Z,70.07
2023-01-15T08:32:51.102Z,70.13
2023-01-15T08:35:17.665Z,69.62
2023-01-15T08:37:44.260Z,69.33
2023-01-15T08:40:11.725Z,68.99
2023-01-15T08:42:38.649Z,68.88
2023-01-15T08:45:08.815Z,69.00
2023-01-15T08:47:37.269Z,68.78
2023-01-15T08:50:05.110Z,68.51
2023-01-15T08:52:31.567Z,68.53
2023-01-15T08:54:58.080Z,68.45
2023-01-15T08:57:24.609Z,68.24
2023-01-15T08:59:51.082Z,68.28
2023-01-15T09:02:18.359Z,68.37
2023-01-15T09:04:45.884Z,68.27
2023-01-15T09:07:12.932Z,68.65
2023-01-15T09:09:39.472Z,68.19
2023-01-15T09:12:06.006Z,68.34
2023-01-15T09:14:58.673Z,69.41
2023-01-15T09:17:18.886Z,69.46
2023-01-15T09:19:46.080Z,68.87
2023-01-15T09:22:12.552Z,68.37
2023-01-15T09:24:39.039Z,68.21
2023-01-15T09:27:05.502Z,67.95
2023-01-15T09:29:31.952Z,68.19
2023-01-15T09:31:58.418Z,67.91
2023-01-15T09:34:24.862Z,68.52
2023-01-15T09:36:51.357Z,68.50
2023-01-15T09:39:17.890Z,68.38
2023-01-15T09:42:05.590Z,68.40
2023-01-15T09:44:43.482Z,69.06
2023-01-15T09:47:18.788Z,68.90
2023-01-15T09:50:25.821Z,69.09
2023-01-15T09:53:17.862Z,69.04
2023-01-15T09:55:49.009Z,69.29
2023-01-15T09:58:18.023Z,69.05
2023-01-15T10:00:47.276Z,68.66
2023-01-15T10:03:32.338Z,68.24
2023-01-15T10:05:58.773Z,67.78
2023-01-15T10:08:41.216Z,67.47
2023-01-15T10:11:17.659Z,67.42
2023-01-15T10:14:06.693Z,67.48
2023-01-15T10:16:36.059Z,67.45
2023-01-15T10:19:03.053Z,67.33
2023-01-15T10:21:45.412Z,67.25
2023-01-15T10:24:18.506Z,67.41
2023-01-15T10:26:54.841Z,67.31
2023-01-15T10:29:53.062Z,67.25
2023-01-15T10:32:37.983Z,67.30
2023-01-15T10:35:52.647Z,67.73
2023-01-15T10:38:48.596Z,67.62
2023-01-15T10:41:37.082Z,67.71
2023-01-15T10:44:18.083Z,67.28
2023-01-15T10:46:50.205Z,66.90
2023-01-15T10:49:17.868Z,66.69
2023-01-15T10:51:45.406Z,66.91
2023-01-15T10:54:28.826Z,67.14
2023-01-15T10:57:06.080Z,66.91
2023-01-15T11:00:11.112Z,66.97
2023-01-15T11:03:04.004Z,66.80
2023-01-15T11:05:32.263Z,66.58
2023-01-15T11:08:39.363Z,66.35
2023-01-15T11:10:45.913Z,65.94
2023-01-15T11:13:39.155Z,66.20
2023-01-15T11:16:44.534Z,66.26
2023-01-15T11:19:42.402Z,66.11
2023-01-15T11:22:11.581Z,66.02
2023-01-15T11:24:45.981Z,65.88
2023-01-15T11:27:18.686Z,66.27
2023-01-15T11:29:45.727Z,66.09
2023-01-15T11:32:22.675Z,65.82
2023-01-15T11:35:16.943Z,66.00
2023-01-15T11:37:43.476Z,65.86
2023-01-15T11:40:17.575Z,65.28
2023-01-15T11:43:07.850Z,64.94
2023-01-15T11:45:52.986Z,64.67
2023-01-15T11:48:42.583Z,64.53
2023-01-15T11:51:14.170Z,64.91
2023-01-15T11:53:46.249Z,64.01
2023-01-15T11:56:16.167Z,63.54
2023-01-15T11:58:48.113Z,63.15
2023-01-15T12:01:23.436Z,62.76
2023-01-15T12:03:50.060Z,62.90
2023-01-15T12:06:19.719Z,61.83
2023-01-15T12:09:00.396Z,60.93
2023-01-15T12:12:02.374Z,61.05
2023-01-15T12:14:50.386Z,61.16
2023-01-15T12:17:37.427Z,61.01
2023-01-15T12:20:24.759Z,60.57
2023-01-15T12:23:09.144Z,60.63
2023-01-15T12:25:51.971Z,60.55
2023-01-15T12:28:24.547Z,59.45
2023-01-15T12:31:08.733Z,59.44
2023-01-15T12:33:45.450Z,59.25
2023-01-15T12:36:17.994Z,59.22
2023-01-15T12:38:44.341Z,59.67
2023-01-15T12:41:14.094Z,59.74
2023-01-15T12:44:03.458Z,60.49
2023-01-15T12:46:32.151Z,59.50
2023-01-15T12:49:06.366Z,59.71
2023-01-15T12:51:38.859Z,59.29
2023-01-15T12:54:13.646Z,58.56
2023-01-15T12:57:02.842Z,59.16
2023-01-15T12:59:48.478Z,58.85
2023-01-15T13:02:22.218Z,58.93
2023-01-15T13:04:53.626Z,58.37
2023-01-15T13:07:45.165Z,57.14
2023-01-15T13:10:25.096Z,57.87
2023-01-15T13:12:55.975Z,58.53
2023-01-15T13:15:27.276Z,58.23
2023-01-15T13:18:26.624Z,57.79
2023-01-15T13:20:55.162Z,57.25
2023-01-15T13:23:39.168Z,57.64
2023-01-15T13:26:22.333Z,57.22
2023-01-15T13:29:10.395Z,57.46
2023-01-15T13:31:51.062Z,57.36
2023-01-15T13:34:42.545Z,57.28
2023-01-15T13:37:17.931Z,56.71
2023-01-15T13:39:45.596Z,56.54
2023-01-15T13:42:34.380Z,56.29
2023-01-15T13:45:19.107Z,56.02
2023-01-15T13:47:52.686Z,56.26
2023-01-15T13:50:33.895Z,56.57
2023-01-15T13:53:40.858Z,56.62
2023-01-15T13:56:09.632Z,56.82
2023-01-15T13:59:01.247Z,56.51
2023-01-15T14:01:30.737Z,56.67
2023-01-15T14:04:09.360Z,56.26
2023-01-15T14:06:48.826Z,55.80
2023-01-15T14:09:18.196Z,54.66
2023-01-15T14:12:06.673Z,56.00
2023-01-15T14:14:57.592Z,56.01
2023-01-15T14:18:07.230Z,56.22
2023-01-15T14:20:44.451Z,56.07
2023-01-15T14:23:46.004Z,56.10
2023-01-15T14:26:18.896Z,56.46
2023-01-15T14:28:57.939Z,56.02
2023-01-15T14:31:40.847Z,56.13
2023-01-15T14:34:20.637Z,56.76
2023-01-15T14:37:04.334Z,57.51
2023-01-15T14:39:36.744Z,57.14
2023-01-15T14:42:26.336Z,56.86
2023-01-15T14:44:58.179Z,57.56
2023-01-15T14:47:28.955Z,57.59
2023-01-15T14:50:02.078Z,57.75
2023-01-15T14:52:28.620Z,57.41
2023-01-15T14:54:55.768Z,57.13
2023-01-15T14:57:23.661Z,57.47
2023-01-15T14:59:55.235Z,57.25
2023-01-15T15:02:31.701Z,57.46
2023-01-15T15:04:59.194Z,57.45
2023-01-15T15:07:36.062Z,57.81
2023-01-15T15:10:31.885Z,57.79
2023-01-15T15:13:05.225Z,57.70
2023-01-15T15:15:39.796Z,57.93
2023-01-15T15:18:12.442Z,58.11
2023-01-15T15:20:41.855Z,57.90
2023-01-15T15:23:18.889Z,58.06
2023-01-15T15:25:52.878Z,58.10
2023-01-15T15:28:19.382Z,58.15
2023-01-15T15:30:46.522Z,58.08
2023-01-15T15:33:20.942Z,58.26
2023-01-15T15:35:50.806Z,58.33
2023-01-15T15:38:20.577Z,58.45
2023-01-15T15:40:53.252Z,58.32
2023-01-15T15:44:00.967Z,58.20
2023-01-15T15:46:50.624Z,59.33
2023-01-15T15:49:17.611Z,58.59
2023-01-15T15:51:54.205Z,58.52
2023-01-15T15:54:23.385Z,58.44
2023-01-15T15:56:55.834Z,58.65
2023-01-15T15:59:30.854Z,58.58
2023-01-15T16:02:00.410Z,58.52
2023-01-15T16:04:27.305Z,58.59
2023-01-15T16:06:53.803Z,58.66
2023-01-15T16:09:22.157Z,58.07
2023-01-15T16:11:50.225Z,58.36
2023-01-15T16:14:17.275Z,58.29
2023-01-15T16:16:44.255Z,58.44
2023-01-15T16:19:16.491Z,58.63
2023-01-15T16:21:43.103Z,58.71
2023-01-15T16:24:22.710Z,58.25
2023-01-15T16:26:57.555Z,58.54
2023-01-15T16:29:29.771Z,58.23
2023-01-15T16:31:59.733Z,58.33
2023-01-15T16:34:31.052Z,58.60
2023-01-15T16:36:58.096Z,58.37
2023-01-15T16:39:26.667Z,58.04
2023-01-15T16:41:59.764Z,58.27
2023-01-15T16:44:44.055Z,58.25
2023-01-15T16:47:22.827Z,58.22
2023-01-15T16:49:49.576Z,58.36
2023-01-15T16:52:54.990Z,58.32
2023-01-15T16:55:33.548Z,58.50
2023-01-15T16:58:12.229Z,58.67
2023-01-15T17:00:40.925Z,58.80
2023-01-15T17:03:24.444Z,58.81
2023-01-15T17:05:56.576Z,58.94
2023-01-15T17:08:32.381Z,59.29
2023-01-15T17:11:01.125Z,59.16
2023-01-15T17:13:38.845Z,59.30
2023-01-15T17:16:19.982Z,59.57
2023-01-15T17:18:47.892Z,59.37
2023-01-15T17:21:18.777Z,59.52
2023-01-15T17:23:46.107Z,59.40
2023-01-15T17:26:19.186Z,59.61
2023-01-15T17:28:46.654Z,59.76
2023-01-15T17:31:33.957Z,59.53
2023-01-15T17:34:02.284Z,59.61
2023-01-15T17:36:29.380Z,59.55
2023-01-15T17:38:56.076Z,59.66
2023-01-15T17:41:23.400Z,59.58
2023-01-15T17:43:50.411Z,60.21
2023-01-15T17:46:17.359Z,59.81
2023-01-15T17:48:44.236Z,59.92
2023-01-15T17:51:13.659Z,60.26
2023-01-15T17:53:40.280Z,60.32
2023-01-15T17:56:25.820Z,60.27
2023-01-15T17:59:11.137Z,60.44
2023-01-15T18:01:59.446Z,60.28
2023-01-15T18:04:51.160Z,60.54
2023-01-15T18:07:21.707Z,60.57
2023-01-15T18:09:50.297Z,60.45
2023-01-15T18:12:16.815Z,60.58
2023-01-15T18:14:43.347Z,60.40
2023-01-15T18:17:09.935Z,60.31
2023-01-15T18:19:36.390Z,60.46
2023-01-15T18:22:02.940Z,60.33
2023-01-15T18:24:29.462Z,60.33
2023-01-15T18:26:55.993Z,60.39
2023-01-15T18:29:22.489Z,60.52
2023-01-15T18:31:49.020Z,60.45
2023-01-15T18:34:15.511Z,60.31
2023-01-15T18:36:42.022Z,60.35
2023-01-15T18:39:11.939Z,60.54
2023-01-15T18:41:38.682Z,60.64
2023-01-15T18:44:32.186Z,60.81
2023-01-15T18:47:01.127Z,60.84
2023-01-15T18:49:28.450Z,60.97
2023-01-15T18:52:13.738Z,60.73
2023-01-15T18:54:40.219Z,60.86
2023-01-15T18:57:06.719Z,60.98
2023-01-15T18:59:33.288Z,60.56
2023-01-15T19:02:00.209Z,60.24
2023-01-15T19:04:26.929Z,60.46
2023-01-15T19:06:53.938Z,60.45
2023-01-15T19:09:21.350Z,60.59
2023-01-15T19:11:47.851Z,60.42
2023-01-15T19:14:32.959Z,60.53
2023-01-15T19:17:18.192Z,60.40
2023-01-15T19:19:44.653Z,60.03
2023-01-15T19:22:29.686Z,60.16
2023-01-15T19:24:56.492Z,59.69
2023-01-15T19:27:23.046Z,59.72
2023-01-15T19:29:49.501Z,59.73
2023-01-15T19:32:15.959Z,59.42
2023-01-15T19:34:42.452Z,59.05
2023-01-15T19:37:08.939Z,58.92
2023-01-15T19:39:35.436Z,58.32
2023-01-15T19:42:20.515Z,57.48
2023-01-15T19:45:05.588Z,57.56
2023-01-15T19:47:54.067Z,57.76
2023-01-15T19:50:23.954Z,57.72
2023-01-15T19:52:52.724Z,57.61
2023-01-15T19:55:20.477Z,57.82
2023-01-15T19:57:48.864Z,57.86
2023-01-15T20:00:17.699Z,58.06
2023-01-15T20:02:45.693Z,58.20
2023-01-15T20:05:13.492Z,57.81
2023-01-15T20:07:40.211Z,58.11
2023-01-15T20:10:09.603Z,58.41
2023-01-15T20:12:54.692Z,58.63
2023-01-15T20:15:21.298Z,58.93
2023-01-15T20:17:47.846Z,58.79
2023-01-15T20:20:14.709Z,58.72
2023-01-15T20:22:41.175Z,58.94
2023-01-15T20:25:08.276Z,58.91
2023-01-15T20:27:37.431Z,58.93
2023-01-15T20:30:09.344Z,58.89
2023-01-15T20:32:37.074Z,59.12
2023-01-15T20:35:06.575Z,59.23
2023-01-15T20:37:33.363Z,59.10
2023-01-15T20:39:59.840Z,59.46
2023-01-15T20:42:46.935Z,59.54
2023-01-15T20:45:15.179Z,59.79
2023-01-15T20:48:01.266Z,59.79
2023-01-15T20:50:30.372Z,59.99
2023-01-15T20:52:58.737Z,60.32
2023-01-15T20:55:45.592Z,60.01
2023-01-15T20:58:16.375Z,60.10
2023-01-15T21:00:42.951Z,60.34
2023-01-15T21:03:11.060Z,60.86
2023-01-15T21:05:37.640Z,60.74
2023-01-15T21:08:04.290Z,60.92
2023-01-15T21:10:30.795Z,61.00
2023-01-15T21:12:57.268Z,61.13
2023-01-15T21:15:23.753Z,61.07
2023-01-15T21:17:50.235Z,61.11
2023-01-15T21:20:17.014Z,61.22
2023-01-15T21:22:44.353Z,61.65
2023-01-15T21:25:11.268Z,61.55
2023-01-15T21:27:38.024Z,61.75
2023-01-15T21:30:06.077Z,62.10
2023-01-15T21:32:32.871Z,62.13
2023-01-15T21:34:59.338Z,62.04
2023-01-15T21:37:25.863Z,62.52
2023-01-15T21:39:52.324Z,62.27
2023-01-15T21:42:39.452Z,62.46
2023-01-15T21:45:06.740Z,62.48
2023-01-15T21:47:33.872Z,62.66
2023-01-15T21:50:00.360Z,62.79
2023-01-15T21:52:29.383Z,62.99
2023-01-15T21:54:55.939Z,63.34
2023-01-15T21:57:22.476Z,63.40
2023-01-15T21:59:49.137Z,63.69
2023-01-15T22:02:19.073Z,63.90
2023-01-15T22:04:46.010Z,63.90
2023-01-15T22:07:12.661Z,63.96
2023-01-15T22:09:39.147Z,64.38
2023-01-15T22:12:06.010Z,64.41
2023-01-15T22:14:33.075Z,64.50
2023-01-15T22:17:02.242Z,64.74
2023-01-15T22:19:30.295Z,64.58
2023-01-15T22:22:02.746Z,65.41
2023-01-15T22:24:31.091Z,65.27
2023-01-15T22:26:57.746Z,65.27
2023-01-15T22:29:32.653Z,65.53
2023-01-15T22:31:59.630Z,65.41
2023-01-15T22:34:27.545Z,65.74
2023-01-15T22:36:54.159Z,65.81
2023-01-15T22:39:21.394Z,66.02
2023-01-15T22:42:06.359Z,66.29
2023-01-15T22:44:33.612Z,66.42
2023-01-15T22:47:00.156Z,66.39
2023-01-15T22:49:27.359Z,66.37
2023-01-15T22:51:53.955Z,66.83
2023-01-15T22:54:20.516Z,66.82
2023-01-15T22:56:47.187Z,66.76
2023-01-15T22:59:13.959Z,66.98
2023-01-15T23:01:40.931Z,67.35
2023-01-15T23:04:15.829Z,67.37
2023-01-15T23:06:42.600Z,67.48
2023-01-15T23:09:09.047Z,67.79
2023-01-15T23:11:35.527Z,67.77
2023-01-15T23:14:02.194Z,67.48
2023-01-15T23:16:28.670Z,67.74
2023-01-15T23:18:55.385Z,67.97
2023-01-15T23:21:23.967Z,68.00
2023-01-15T23:23:55.076Z,68.26
2023-01-15T23:26:22.091Z,68.46
2023-01-15T23:28:48.642Z,68.40
2023-01-15T23:31:15.144Z,68.27
2023-01-15T23:33:41.712Z,68.51
2023-01-15T23:36:09.755Z,68.86
2023-01-15T23:38:36.743Z,69.04
2023-01-15T23:41:11.237Z,68.92
2023-01-15T23:43:56.874Z,69.30
2023-01-15T23:46:32.970Z,68.88
2023-01-15T23:49:00.323Z,69.54
2023-01-15T23:51:26.905Z,69.28
2023-01-15T23:53:53.415Z,69.10
2023-01-15T23:56:19.928Z,69.24
2023-01-15T23:58:47.346Z,69.03
